Time;durP1;ratioP1;P1;durP2;ratioP2;P2;SDS_P1;SDS_P2;PMS_P1;PMS_P2;Temp;Humidity;BMP_temperature;BMP_pressure;BME280_temperature;BME280_humidity;BME280_pressure;Samples;Min_cycle;Max_cycle;Signal;HPM_P1;HPM_P2
2022/11/19 00:00:22;;;;;;;31.08;19.55;;;;;;;;;;5101235;28;20020;-73
2022/11/19 00:03:07;;;;;;;26.52;18.80;;;;;;;;;;5116515;28;20080;-74
2022/11/19 00:05:53;;;;;;;28.60;19.27;;;;;;;;;;5115548;28;20332;-74
2022/11/19 00:08:38;;;;;;;26.88;17.85;;;;;;;;;;5116711;28;20336;-74
2022/11/19 00:14:29;;;;;;;24.80;17.10;;;;;;;;;;5115988;28;20019;-75
2022/11/19 00:17:15;;;;;;;28.17;18.85;;;;;;;;;;5115835;28;20367;-76
2022/11/19 00:20:01;;;;;;;33.38;21.10;;;;;;;;;;5101376;28;20106;-74
2022/11/19 00:22:49;;;;;;;31.58;20.90;;;;;;;;;;5116169;28;20351;-75
2022/11/19 00:25:35;;;;;;;29.92;21.02;;;;;;;;;;5114554;28;20024;-78
2022/11/19 00:28:21;;;;;;;29.50;20.08;;;;;;;;;;5100700;28;20054;-74
2022/11/19 00:31:07;;;;;;;35.53;23.23;;;;;;;;;;5115697;28;20082;-75
2022/11/19 00:33:53;;;;;;;36.38;25.02;;;;;;;;;;5101675;28;20019;-75
2022/11/19 00:36:39;;;;;;;36.78;24.67;;;;;;;;;;5115189;28;20051;-74
2022/11/19 00:39:24;;;;;;;36.30;24.13;;;;;;;;;;5115378;28;20405;-75
2022/11/19 00:42:10;;;;;;;37.65;24.85;;;;;;;;;;5101384;28;20019;-75
2022/11/19 00:44:56;;;;;;;39.17;25.25;;;;;;;;;;5101354;28;20119;-75
2022/11/19 00:47:41;;;;;;;36.55;24.23;;;;;;;;;;5115520;28;20027;-76
2022/11/19 00:50:27;;;;;;;40.28;25.60;;;;;;;;;;5101055;28;20039;-76
2022/11/19 00:53:12;;;;;;;41.00;25.63;;;;;;;;;;5115373;28;20344;-76
2022/11/19 00:56:05;;;;;;;39.13;24.70;;;;;;;;;;5105403;28;20102;-76
2022/11/19 00:58:51;;;;;;;43.38;27.48;;;;;;;;;;5115021;28;20015;-75
2022/11/19 01:01:37;;;;;;;44.70;27.55;;;;;;;;;;5105833;28;20023;-76
2022/11/19 01:04:22;;;;;;;43.17;27.48;;;;;;;;;;5121845;28;20019;-75
2022/11/19 01:07:08;;;;;;;46.85;28.52;;;;;;;;;;5115807;28;20008;-75
2022/11/19 01:09:53;;;;;;;42.33;27.30;;;;;;;;;;5115688;28;20404;-77
2022/11/19 01:13:33;;;;;;;44.95;27.45;;;;;;;;;;5115398;28;20086;-76
2022/11/19 01:15:48;;;;;;;44.00;28.00;;;;;;;;;;5114251;28;20031;-76
2022/11/19 01:18:35;;;;;;;46.47;29.00;;;;;;;;;;5114631;28;20043;-75
2022/11/19 01:21:22;;;;;;;47.85;29.55;;;;;;;;;;5114483;28;20095;-75
2022/11/19 01:24:07;;;;;;;45.92;28.85;;;;;;;;;;5099862;28;20024;-75
2022/11/19 01:26:53;;;;;;;51.70;30.15;;;;;;;;;;5114403;28;20030;-76
2022/11/19 01:29:39;;;;;;;48.35;30.45;;;;;;;;;;5114918;28;20508;-77
2022/11/19 01:32:24;;;;;;;50.28;31.17;;;;;;;;;;5100524;28;20020;-75
2022/11/19 01:35:10;;;;;;;52.70;32.38;;;;;;;;;;5114701;28;20069;-76
2022/11/19 01:37:55;;;;;;;49.00;29.65;;;;;;;;;;5114873;28;20506;-76
2022/11/19 01:40:42;;;;;;;47.00;29.95;;;;;;;;;;5115153;28;20043;-75
2022/11/19 01:43:44;;;;;;;48.08;29.52;;;;;;;;;;5113117;28;20459;-75
2022/11/19 01:46:31;;;;;;;47.22;29.92;;;;;;;;;;5113865;28;20016;-76
2022/11/19 01:49:17;;;;;;;48.55;30.83;;;;;;;;;;5114304;28;20016;-76
2022/11/19 01:52:04;;;;;;;49.83;29.95;;;;;;;;;;5099079;28;20090;-75
2022/11/19 01:54:51;;;;;;;53.45;32.25;;;;;;;;;;5098702;28;20023;-76
2022/11/19 01:57:38;;;;;;;49.25;29.50;;;;;;;;;;5114149;28;20102;-76
2022/11/19 02:00:24;;;;;;;50.10;31.23;;;;;;;;;;5113708;28;20443;-75
2022/11/19 02:03:10;;;;;;;48.42;30.90;;;;;;;;;;5114150;28;20334;-75
2022/11/19 02:05:57;;;;;;;48.67;29.65;;;;;;;;;;5113262;28;20026;-75
2022/11/19 02:08:44;;;;;;;51.35;32.35;;;;;;;;;;5114990;28;20444;-75
2022/11/19 02:11:29;;;;;;;50.35;30.67;;;;;;;;;;5117403;28;20023;-75
2022/11/19 02:14:33;;;;;;;46.75;29.90;;;;;;;;;;5103033;28;20027;-77
2022/11/19 02:17:25;;;;;;;47.22;29.33;;;;;;;;;;5117826;28;20430;-77
2022/11/19 02:20:17;;;;;;;55.00;30.23;;;;;;;;;;5102906;28;20015;-76
2022/11/19 02:23:11;;;;;;;46.83;29.55;;;;;;;;;;5102412;28;20031;-76
2022/11/19 02:25:57;;;;;;;46.88;29.63;;;;;;;;;;5116845;28;20024;-77
2022/11/19 02:28:58;;;;;;;44.38;29.15;;;;;;;;;;5117143;28;20458;-75
2022/11/19 02:32:00;;;;;;;45.50;28.48;;;;;;;;;;5116710;28;20108;-75
2022/11/19 02:34:50;;;;;;;42.38;27.02;;;;;;;;;;5117583;28;20332;-75
2022/11/19 02:37:48;;;;;;;42.33;26.95;;;;;;;;;;5116867;28;20055;-75
2022/11/19 02:40:39;;;;;;;46.10;27.35;;;;;;;;;;5116995;28;20416;-75
2022/11/19 02:44:57;;;;;;;39.88;24.83;;;;;;;;;;5117354;28;20093;-75
2022/11/19 02:46:57;;;;;;;37.35;24.63;;;;;;;;;;5117685;27;20359;-76
2022/11/19 02:49:46;;;;;;;39.03;24.75;;;;;;;;;;5102780;28;20035;-76
2022/11/19 02:52:32;;;;;;;37.65;24.95;;;;;;;;;;5117038;28;20099;-75
2022/11/19 02:55:18;;;;;;;36.10;23.58;;;;;;;;;;5116685;28;20102;-76
2022/11/19 02:58:07;;;;;;;37.40;23.33;;;;;;;;;;5117039;28;20450;-74
2022/11/19 03:07:01;;;;;;;33.90;22.00;;;;;;;;;;5116477;28;20164;-75
2022/11/19 03:09:53;;;;;;;32.53;22.27;;;;;;;;;;5108823;28;20047;-75
2022/11/19 03:12:39;;;;;;;29.25;20.27;;;;;;;;;;5116961;28;20028;-75
2022/11/19 03:18:48;;;;;;;29.35;20.00;;;;;;;;;;5116846;28;20106;-75
2022/11/19 03:21:33;;;;;;;27.73;19.27;;;;;;;;;;5115861;28;20076;-76
2022/11/19 03:24:20;;;;;;;28.38;19.45;;;;;;;;;;5115803;28;20114;-75
2022/11/19 03:27:15;;;;;;;28.63;18.48;;;;;;;;;;5116534;28;20019;-75
2022/11/19 03:30:02;;;;;;;26.73;18.65;;;;;;;;;;5116224;28;20012;-76
2022/11/19 03:32:50;;;;;;;27.20;18.30;;;;;;;;;;5116461;28;20104;-75
2022/11/19 03:35:39;;;;;;;25.60;17.70;;;;;;;;;;5116833;28;20553;-75
2022/11/19 03:38:32;;;;;;;25.88;17.75;;;;;;;;;;5116516;28;20514;-76
2022/11/19 03:41:19;;;;;;;27.10;17.23;;;;;;;;;;5116029;28;20092;-75
2022/11/19 03:44:28;;;;;;;27.27;18.00;;;;;;;;;;5115791;28;20435;-76
2022/11/19 03:47:15;;;;;;;24.00;16.33;;;;;;;;;;5116181;28;20102;-76
2022/11/19 03:50:09;;;;;;;25.10;17.27;;;;;;;;;;5115246;28;20030;-76
2022/11/19 03:52:56;;;;;;;25.02;17.27;;;;;;;;;;5116153;28;20023;-77
2022/11/19 03:55:44;;;;;;;25.17;17.40;;;;;;;;;;5116103;28;20015;-76
2022/11/19 03:58:35;;;;;;;24.27;17.38;;;;;;;;;;5115988;28;20458;-76
2022/11/19 04:01:21;;;;;;;25.65;16.52;;;;;;;;;;5100843;28;20031;-76
2022/11/19 04:07:12;;;;;;;21.92;15.45;;;;;;;;;;5115481;28;20051;-77
2022/11/19 04:09:57;;;;;;;20.52;14.52;;;;;;;;;;5115605;28;20325;-76
2022/11/19 04:12:43;;;;;;;22.60;14.60;;;;;;;;;;5115372;28;20019;-77
2022/11/19 04:15:29;;;;;;;17.67;13.88;;;;;;;;;;5115086;28;20019;-76
2022/11/19 04:18:14;;;;;;;20.25;14.05;;;;;;;;;;5114732;28;20055;-75
2022/11/19 04:21:00;;;;;;;20.83;14.68;;;;;;;;;;5115607;28;20020;-76
2022/11/19 04:23:45;;;;;;;20.25;14.80;;;;;;;;;;5099918;28;20028;-76
2022/11/19 04:26:31;;;;;;;21.05;14.32;;;;;;;;;;5115898;28;20015;-76
2022/11/19 04:29:16;;;;;;;20.77;15.07;;;;;;;;;;5114934;28;20027;-76
2022/11/19 04:32:02;;;;;;;22.13;15.18;;;;;;;;;;5114812;28;20032;-76
2022/11/19 04:34:48;;;;;;;21.52;15.05;;;;;;;;;;5115327;28;20506;-76
2022/11/19 04:37:34;;;;;;;20.17;14.77;;;;;;;;;;5114780;28;20105;-76
2022/11/19 04:40:19;;;;;;;20.85;14.70;;;;;;;;;;5115926;28;20045;-77
2022/11/19 04:43:05;;;;;;;19.10;14.23;;;;;;;;;;5117194;28;20063;-75
2022/11/19 04:45:50;;;;;;;19.48;13.70;;;;;;;;;;5119606;28;20030;-76
2022/11/19 04:48:36;;;;;;;21.60;14.93;;;;;;;;;;5115453;28;20393;-76
2022/11/19 04:51:21;;;;;;;20.77;15.05;;;;;;;;;;5115134;28;20019;-75
2022/11/19 04:54:07;;;;;;;21.13;15.20;;;;;;;;;;5115012;28;20019;-75
2022/11/19 04:56:53;;;;;;;21.77;15.35;;;;;;;;;;5100741;28;20031;-76
2022/11/19 04:59:38;;;;;;;20.00;13.40;;;;;;;;;;5116084;28;20015;-77
2022/11/19 05:02:24;;;;;;;19.08;14.18;;;;;;;;;;5114446;28;20058;-76
2022/11/19 05:05:09;;;;;;;20.80;14.43;;;;;;;;;;5114964;28;20325;-75
2022/11/19 05:07:55;;;;;;;20.48;13.90;;;;;;;;;;5114983;28;20043;-75
2022/11/19 05:10:42;;;;;;;19.75;13.80;;;;;;;;;;5115228;28;20080;-77
2022/11/19 05:13:27;;;;;;;20.58;14.45;;;;;;;;;;5114390;28;20019;-76
2022/11/19 05:16:13;;;;;;;19.40;14.32;;;;;;;;;;5113463;28;20019;-75
2022/11/19 05:18:59;;;;;;;18.80;13.48;;;;;;;;;;5114917;28;20153;-76
2022/11/19 05:21:44;;;;;;;20.60;14.77;;;;;;;;;;5114593;28;20031;-77
2022/11/19 05:24:30;;;;;;;18.90;13.40;;;;;;;;;;5115679;28;20035;-75
2022/11/19 05:27:16;;;;;;;18.02;13.23;;;;;;;;;;5120568;28;20016;-76
2022/11/19 05:30:03;;;;;;;21.10;14.18;;;;;;;;;;5116072;28;20020;-75
2022/11/19 05:32:48;;;;;;;20.60;15.23;;;;;;;;;;5114783;28;20024;-76
2022/11/19 05:35:34;;;;;;;23.27;14.70;;;;;;;;;;5114298;28;20022;-77
2022/11/19 05:38:20;;;;;;;18.42;13.48;;;;;;;;;;5114086;28;20056;-76
2022/11/19 05:41:05;;;;;;;18.90;13.40;;;;;;;;;;5114442;28;20359;-75
2022/11/19 05:43:51;;;;;;;19.50;13.95;;;;;;;;;;5117029;28;20020;-77
2022/11/19 05:46:36;;;;;;;18.45;13.15;;;;;;;;;;5119600;27;20026;-76
2022/11/19 05:49:22;;;;;;;17.00;12.40;;;;;;;;;;5103669;28;20007;-77
2022/11/19 05:52:09;;;;;;;18.13;11.80;;;;;;;;;;5103640;28;20504;-76
2022/11/19 05:54:54;;;;;;;16.17;12.07;;;;;;;;;;5117810;28;20038;-76
2022/11/19 05:57:40;;;;;;;17.77;12.82;;;;;;;;;;5117766;28;20023;-76
2022/11/19 06:00:26;;;;;;;15.73;11.77;;;;;;;;;;5103454;28;20020;-76
2022/11/19 06:03:11;;;;;;;15.73;12.00;;;;;;;;;;5119268;28;20023;-77
2022/11/19 06:05:57;;;;;;;15.68;12.15;;;;;;;;;;5117650;28;20023;-77
2022/11/19 06:08:42;;;;;;;16.27;11.57;;;;;;;;;;5117643;28;20356;-76
2022/11/19 06:11:46;;;;;;;15.48;11.57;;;;;;;;;;5103155;28;20019;-76
2022/11/19 06:14:32;;;;;;;16.17;12.13;;;;;;;;;;5102868;28;20034;-76
2022/11/19 06:17:17;;;;;;;17.83;12.63;;;;;;;;;;5117507;28;20011;-75
2022/11/19 06:20:03;;;;;;;17.02;12.70;;;;;;;;;;5118204;28;20032;-75
2022/11/19 06:22:48;;;;;;;17.30;12.88;;;;;;;;;;5118115;28;20506;-77
2022/11/19 06:25:34;;;;;;;16.88;12.50;;;;;;;;;;5117662;28;20024;-75
2022/11/19 06:28:20;;;;;;;18.70;14.25;;;;;;;;;;5118830;28;20106;-76
2022/11/19 06:31:05;;;;;;;19.95;13.90;;;;;;;;;;5117072;28;20016;-75
2022/11/19 06:33:52;;;;;;;19.95;14.23;;;;;;;;;;5118229;28;20369;-76
2022/11/19 06:36:37;;;;;;;19.15;13.40;;;;;;;;;;5117783;28;20055;-76
2022/11/19 06:39:23;;;;;;;18.27;13.25;;;;;;;;;;5102330;28;20043;-76
2022/11/19 06:45:13;;;;;;;21.98;13.57;;;;;;;;;;5117768;28;20019;-76
2022/11/19 06:47:59;;;;;;;18.05;12.65;;;;;;;;;;5103089;28;20030;-77
2022/11/19 06:50:44;;;;;;;17.73;12.60;;;;;;;;;;5117659;28;20086;-78
2022/11/19 06:53:30;;;;;;;16.75;12.57;;;;;;;;;;5118158;28;20454;-77
2022/11/19 06:56:15;;;;;;;17.95;12.30;;;;;;;;;;5116654;28;20035;-76
2022/11/19 06:59:01;;;;;;;18.80;13.10;;;;;;;;;;5117645;28;20077;-77
2022/11/19 07:01:47;;;;;;;24.83;16.42;;;;;;;;;;5117857;27;20024;-76
2022/11/19 07:04:32;;;;;;;17.48;13.10;;;;;;;;;;5116801;28;20359;-77
2022/11/19 07:07:18;;;;;;;16.98;11.75;;;;;;;;;;5116670;28;20031;-76
2022/11/19 07:10:03;;;;;;;16.85;13.15;;;;;;;;;;5117162;28;20028;-75
2022/11/19 07:12:49;;;;;;;17.83;12.32;;;;;;;;;;5102244;28;20012;-76
2022/11/19 07:15:34;;;;;;;18.10;11.82;;;;;;;;;;5101839;28;20110;-76
2022/11/19 07:18:20;;;;;;;18.10;12.98;;;;;;;;;;5101309;28;20020;-76
2022/11/19 07:21:06;;;;;;;15.70;11.45;;;;;;;;;;5116880;28;20034;-76
2022/11/19 07:23:51;;;;;;;18.08;11.63;;;;;;;;;;5101506;28;20144;-76
2022/11/19 07:26:37;;;;;;;16.52;11.43;;;;;;;;;;5116765;28;20091;-77
2022/11/19 07:29:23;;;;;;;14.55;11.45;;;;;;;;;;5102247;28;20051;-77
2022/11/19 07:32:08;;;;;;;25.92;16.60;;;;;;;;;;5116572;28;20026;-78
2022/11/19 07:34:54;;;;;;;20.08;15.00;;;;;;;;;;5116955;28;20088;-77
2022/11/19 07:37:39;;;;;;;16.92;13.15;;;;;;;;;;5115659;28;20044;-76
2022/11/19 07:40:25;;;;;;;17.70;12.10;;;;;;;;;;5116087;28;20024;-76
2022/11/19 07:43:10;;;;;;;15.38;11.25;;;;;;;;;;5116310;28;20058;-76
2022/11/19 07:45:56;;;;;;;15.25;11.80;;;;;;;;;;5101383;28;20019;-75
2022/11/19 07:48:41;;;;;;;17.63;11.73;;;;;;;;;;5115958;28;20161;-77
2022/11/19 07:51:27;;;;;;;12.85;10.88;;;;;;;;;;5116509;28;20443;-76
2022/11/19 07:54:13;;;;;;;12.45;9.43;;;;;;;;;;5117027;28;20088;-76
2022/11/19 07:56:59;;;;;;;12.95;10.27;;;;;;;;;;5119586;27;20024;-75
2022/11/19 07:59:45;;;;;;;14.15;9.70;;;;;;;;;;5102330;28;20028;-77
2022/11/19 08:02:30;;;;;;;14.20;10.38;;;;;;;;;;5103357;28;20027;-76
2022/11/19 08:05:16;;;;;;;13.38;10.00;;;;;;;;;;5115790;28;20114;-76
2022/11/19 08:08:02;;;;;;;13.68;9.95;;;;;;;;;;5100072;28;20051;-76
2022/11/19 08:10:47;;;;;;;13.65;9.23;;;;;;;;;;5117251;28;20020;-78
2022/11/19 08:13:33;;;;;;;11.52;9.38;;;;;;;;;;5101487;28;20027;-76
2022/11/19 08:19:23;;;;;;;12.20;9.23;;;;;;;;;;5116060;28;20073;-76
2022/11/19 08:22:09;;;;;;;10.85;8.57;;;;;;;;;;5115392;28;20034;-75
2022/11/19 08:24:55;;;;;;;12.90;8.82;;;;;;;;;;5101689;28;20074;-75
2022/11/19 08:27:41;;;;;;;11.77;8.82;;;;;;;;;;5116622;28;20008;-76
2022/11/19 08:30:27;;;;;;;12.25;8.52;;;;;;;;;;5117423;28;20016;-74
2022/11/19 08:33:13;;;;;;;11.70;7.82;;;;;;;;;;5104179;28;20026;-75
2022/11/19 08:35:58;;;;;;;9.90;7.72;;;;;;;;;;5115915;28;20035;-75
2022/11/19 08:38:44;;;;;;;9.60;7.15;;;;;;;;;;5123073;28;20023;-75
2022/11/19 08:44:34;;;;;;;11.13;7.25;;;;;;;;;;5117699;28;20023;-76
2022/11/19 08:47:19;;;;;;;10.68;7.10;;;;;;;;;;5115313;28;20115;-76
2022/11/19 08:50:05;;;;;;;8.75;6.82;;;;;;;;;;5116192;28;20043;-76
2022/11/19 08:52:54;;;;;;;11.10;6.82;;;;;;;;;;5118323;28;20023;-77
2022/11/19 08:55:40;;;;;;;9.30;7.13;;;;;;;;;;5105085;28;20024;-74
2022/11/19 08:58:25;;;;;;;8.07;6.85;;;;;;;;;;5128311;28;20118;-75
2022/11/19 09:01:12;;;;;;;9.05;7.03;;;;;;;;;;5134353;28;20027;-76
2022/11/19 09:03:57;;;;;;;8.88;6.88;;;;;;;;;;5134381;28;20016;-75
2022/11/19 09:06:43;;;;;;;9.13;6.68;;;;;;;;;;5132125;28;20027;-75
2022/11/19 09:09:28;;;;;;;8.23;6.63;;;;;;;;;;5134147;28;20033;-78
2022/11/19 09:12:15;;;;;;;10.10;6.80;;;;;;;;;;5124650;28;20019;-76
2022/11/19 09:15:01;;;;;;;8.77;6.88;;;;;;;;;;5130716;28;20023;-77
2022/11/19 09:17:47;;;;;;;9.85;6.90;;;;;;;;;;5125963;28;20026;-78
2022/11/19 09:20:34;;;;;;;10.90;6.93;;;;;;;;;;5123082;28;20023;-77
2022/11/19 09:23:20;;;;;;;10.95;8.07;;;;;;;;;;5139660;28;20049;-75
2022/11/19 09:26:07;;;;;;;9.52;7.07;;;;;;;;;;5137293;27;20019;-77
2022/11/19 09:28:52;;;;;;;10.75;7.20;;;;;;;;;;5124696;28;20053;-76
2022/11/19 09:31:38;;;;;;;9.27;7.60;;;;;;;;;;5137587;28;20034;-75
2022/11/19 09:34:24;;;;;;;9.52;6.88;;;;;;;;;;5138262;28;20075;-75
2022/11/19 09:37:10;;;;;;;10.73;7.13;;;;;;;;;;5134703;28;20052;-74
2022/11/19 09:39:55;;;;;;;8.35;6.40;;;;;;;;;;5138199;28;20079;-77
2022/11/19 09:42:56;;;;;;;7.38;6.07;;;;;;;;;;5128580;28;20020;-76
2022/11/19 09:45:57;;;;;;;9.65;6.28;;;;;;;;;;5120756;28;20023;-77
2022/11/19 09:48:44;;;;;;;10.30;6.78;;;;;;;;;;5124444;28;20102;-77
2022/11/19 09:51:31;;;;;;;10.40;7.03;;;;;;;;;;5105645;28;20035;-76
2022/11/19 09:54:17;;;;;;;8.45;6.32;;;;;;;;;;5120827;28;20031;-76
2022/11/19 09:57:05;;;;;;;8.93;6.63;;;;;;;;;;5118621;28;20015;-76
2022/11/19 09:59:54;;;;;;;7.32;5.78;;;;;;;;;;5120147;28;20372;-76
2022/11/19 10:02:39;;;;;;;9.13;6.53;;;;;;;;;;5117953;28;20030;-76
2022/11/19 10:05:34;;;;;;;8.70;6.28;;;;;;;;;;5119870;28;20337;-78
2022/11/19 10:08:23;;;;;;;9.02;5.82;;;;;;;;;;5118153;28;20022;-77
2022/11/19 10:11:20;;;;;;;7.72;6.03;;;;;;;;;;5125917;28;20020;-77
2022/11/19 10:14:12;;;;;;;7.10;5.65;;;;;;;;;;5135580;28;20050;-76
2022/11/19 10:17:16;;;;;;;8.65;5.88;;;;;;;;;;5122407;28;20030;-77
2022/11/19 10:20:01;;;;;;;7.40;5.78;;;;;;;;;;5137708;28;20031;-77
2022/11/19 10:23:03;;;;;;;7.32;5.97;;;;;;;;;;5130542;28;20035;-75
2022/11/19 10:25:52;;;;;;;8.60;5.82;;;;;;;;;;5138887;28;20034;-75
2022/11/19 10:28:39;;;;;;;6.53;4.63;;;;;;;;;;5139106;28;20023;-76
2022/11/19 10:31:57;;;;;;;7.07;4.95;;;;;;;;;;5136590;28;20067;-78
2022/11/19 10:34:44;;;;;;;6.43;4.95;;;;;;;;;;5083543;28;20027;-77
2022/11/19 10:37:32;;;;;;;6.95;5.20;;;;;;;;;;5127425;28;20032;-77
2022/11/19 10:40:19;;;;;;;7.05;5.25;;;;;;;;;;5133514;28;20031;-76
2022/11/19 10:43:24;;;;;;;11.80;6.78;;;;;;;;;;5126723;27;20024;-78
2022/11/19 10:46:11;;;;;;;8.75;5.40;;;;;;;;;;5118962;28;20032;-76
2022/11/19 10:48:57;;;;;;;8.15;5.85;;;;;;;;;;5116600;28;20028;-76
2022/11/19 10:51:43;;;;;;;8.75;6.45;;;;;;;;;;5117833;28;20016;-78
2022/11/19 10:54:29;;;;;;;6.93;5.43;;;;;;;;;;5118446;28;20333;-77
2022/11/19 10:57:16;;;;;;;8.38;4.93;;;;;;;;;;5117074;28;20024;-78
2022/11/19 11:00:02;;;;;;;6.47;5.07;;;;;;;;;;5118176;28;20020;-76
2022/11/19 11:02:55;;;;;;;6.55;4.70;;;;;;;;;;5118984;28;20455;-77
2022/11/19 11:05:54;;;;;;;7.93;4.95;;;;;;;;;;5117957;28;20024;-76
2022/11/19 11:08:53;;;;;;;6.15;4.80;;;;;;;;;;5121400;28;20019;-77
2022/11/19 11:14:53;;;;;;;7.22;5.47;;;;;;;;;;5120089;28;20108;-76
2022/11/19 11:17:41;;;;;;;6.55;5.15;;;;;;;;;;5131848;28;20023;-76
2022/11/19 11:20:27;;;;;;;7.78;5.53;;;;;;;;;;5116715;28;20453;-75
2022/11/19 11:23:17;;;;;;;6.45;5.40;;;;;;;;;;5121751;28;20027;-77
2022/11/19 11:26:08;;;;;;;6.88;5.55;;;;;;;;;;5135262;28;20028;-76
2022/11/19 11:29:01;;;;;;;6.03;4.90;;;;;;;;;;5137676;28;20024;-76
2022/11/19 11:31:47;;;;;;;8.75;5.03;;;;;;;;;;5124613;28;20035;-76
2022/11/19 11:34:35;;;;;;;5.10;4.55;;;;;;;;;;5106595;28;20051;-78
2022/11/19 11:37:21;;;;;;;6.32;4.45;;;;;;;;;;5107719;28;20445;-77
2022/11/19 11:40:16;;;;;;;6.53;4.53;;;;;;;;;;5099539;28;20020;-79
2022/11/19 11:43:02;;;;;;;9.38;5.07;;;;;;;;;;5098982;28;20099;-78
2022/11/19 11:45:54;;;;;;;6.25;4.40;;;;;;;;;;5097718;28;20047;-77
2022/11/19 11:48:42;;;;;;;7.50;4.88;;;;;;;;;;5098443;28;20044;-77
2022/11/19 11:51:35;;;;;;;5.40;4.25;;;;;;;;;;5109936;28;20023;-78
2022/11/19 11:54:21;;;;;;;6.47;4.43;;;;;;;;;;5112079;28;20032;-76
2022/11/19 11:57:17;;;;;;;6.72;4.70;;;;;;;;;;5111341;28;20020;-76
2022/11/19 12:00:23;;;;;;;6.00;4.10;;;;;;;;;;5110926;28;20053;-78
2022/11/19 12:03:09;;;;;;;4.65;3.38;;;;;;;;;;5109200;28;20398;-76
2022/11/19 12:06:01;;;;;;;4.95;3.55;;;;;;;;;;5107716;28;20368;-77
2022/11/19 12:09:09;;;;;;;4.03;3.03;;;;;;;;;;5107026;28;20012;-77
2022/11/19 12:12:04;;;;;;;4.00;3.58;;;;;;;;;;5105130;28;20031;-77
2022/11/19 12:15:16;;;;;;;4.07;2.92;;;;;;;;;;5105775;28;20019;-76
2022/11/19 12:18:10;;;;;;;4.80;3.78;;;;;;;;;;5086560;28;20027;-77
2022/11/19 12:21:02;;;;;;;4.85;3.70;;;;;;;;;;5105390;28;20096;-78
2022/11/19 12:24:10;;;;;;;4.30;3.83;;;;;;;;;;5108651;28;20039;-77
2022/11/19 12:26:56;;;;;;;4.50;3.70;;;;;;;;;;5109355;28;20012;-76
2022/11/19 12:29:51;;;;;;;4.80;3.83;;;;;;;;;;5104317;28;20020;-77
2022/11/19 12:33:12;;;;;;;5.68;4.78;;;;;;;;;;5104018;28;20020;-76
2022/11/19 12:36:30;;;;;;;6.40;4.30;;;;;;;;;;5001695;28;20034;-76
2022/11/19 12:39:25;;;;;;;5.80;4.07;;;;;;;;;;5058691;28;20040;-76
2022/11/19 12:42:20;;;;;;;4.75;4.00;;;;;;;;;;5092646;28;20084;-76
2022/11/19 12:45:11;;;;;;;4.35;3.83;;;;;;;;;;5077282;28;20027;-76
2022/11/19 12:48:11;;;;;;;4.18;3.70;;;;;;;;;;5078207;28;20043;-77
2022/11/19 12:51:06;;;;;;;4.57;3.50;;;;;;;;;;5086862;28;20336;-78
2022/11/19 12:54:11;;;;;;;6.22;3.50;;;;;;;;;;5095959;28;20448;-76
2022/11/19 12:57:00;;;;;;;4.75;3.63;;;;;;;;;;5095477;28;20089;-77
2022/11/19 12:59:45;;;;;;;4.75;3.88;;;;;;;;;;5095309;28;20494;-77
2022/11/19 13:02:34;;;;;;;5.72;4.07;;;;;;;;;;5095869;28;20028;-77
2022/11/19 13:05:19;;;;;;;5.82;4.13;;;;;;;;;;5082660;28;20028;-77
2022/11/19 13:08:08;;;;;;;5.53;3.53;;;;;;;;;;5074523;28;20016;-77
2022/11/19 13:11:11;;;;;;;5.20;3.63;;;;;;;;;;5097091;28;20027;-75
2022/11/19 13:13:59;;;;;;;9.05;4.05;;;;;;;;;;5098073;28;20024;-77
2022/11/19 13:16:45;;;;;;;6.63;4.00;;;;;;;;;;5096964;28;20080;-77
2022/11/19 13:19:32;;;;;;;9.52;3.92;;;;;;;;;;5096477;28;20356;-69
2022/11/19 13:22:20;;;;;;;4.50;3.47;;;;;;;;;;5080901;28;20117;-72
2022/11/19 13:25:14;;;;;;;4.72;3.78;;;;;;;;;;5095352;28;20341;-71
2022/11/19 13:28:01;;;;;;;6.15;3.40;;;;;;;;;;5095391;28;20051;-70
2022/11/19 13:30:49;;;;;;;11.50;4.22;;;;;;;;;;5095444;28;20082;-71
2022/11/19 13:33:42;;;;;;;4.90;3.83;;;;;;;;;;5094883;28;20416;-71
2022/11/19 13:36:33;;;;;;;5.40;4.10;;;;;;;;;;5099859;27;20132;-71
2022/11/19 13:39:29;;;;;;;5.65;4.20;;;;;;;;;;5115296;28;20051;-72
2022/11/19 13:45:20;;;;;;;4.43;3.80;;;;;;;;;;5114597;28;20020;-71
2022/11/19 13:48:19;;;;;;;4.50;3.53;;;;;;;;;;5099476;28;20358;-72
2022/11/19 13:51:08;;;;;;;7.15;4.70;;;;;;;;;;5113840;28;20030;-70
2022/11/19 13:53:54;;;;;;;10.57;4.55;;;;;;;;;;5114966;28;20020;-72
2022/11/19 13:56:42;;;;;;;7.68;4.45;;;;;;;;;;5114622;28;20098;-71
2022/11/19 13:59:35;;;;;;;8.93;5.15;;;;;;;;;;5113569;28;20019;-72
2022/11/19 14:02:39;;;;;;;5.10;4.40;;;;;;;;;;5114582;28;20023;-70
2022/11/19 14:05:54;;;;;;;8.18;4.18;;;;;;;;;;5101890;28;20066;-72
2022/11/19 14:08:43;;;;;;;6.90;4.28;;;;;;;;;;5095734;28;20020;-72
2022/11/19 14:11:28;;;;;;;5.50;4.28;;;;;;;;;;5118928;28;20101;-72
2022/11/19 14:26:51;;;;;;;11.13;4.40;;;;;;;;;;5118031;28;20452;-72
2022/11/19 14:29:39;;;;;;;7.20;4.38;;;;;;;;;;5116888;28;20020;-71
2022/11/19 14:32:29;;;;;;;9.32;5.07;;;;;;;;;;5118173;28;20414;-71
2022/11/19 14:35:15;;;;;;;11.60;5.60;;;;;;;;;;5118044;28;20035;-72
2022/11/19 14:38:07;;;;;;;14.65;5.50;;;;;;;;;;5117488;28;20111;-70
2022/11/19 14:41:04;;;;;;;13.00;6.50;;;;;;;;;;5117030;28;20035;-71
2022/11/19 14:44:08;;;;;;;13.35;7.07;;;;;;;;;;5116686;28;20019;-70
2022/11/19 14:46:53;;;;;;;22.95;8.70;;;;;;;;;;5118053;28;20081;-71
2022/11/19 14:49:39;;;;;;;14.27;8.07;;;;;;;;;;5117683;28;20440;-72
2022/11/19 14:52:27;;;;;;;17.23;9.27;;;;;;;;;;5117940;28;20023;-73
2022/11/19 14:55:12;;;;;;;17.60;9.52;;;;;;;;;;5117700;28;20023;-75
2022/11/19 14:58:03;;;;;;;15.02;9.23;;;;;;;;;;5102063;28;20035;-75
2022/11/19 15:00:50;;;;;;;18.65;9.70;;;;;;;;;;5118350;28;20024;-75
2022/11/19 15:03:36;;;;;;;25.38;12.00;;;;;;;;;;5117432;28;20039;-75
2022/11/19 15:06:22;;;;;;;26.15;13.48;;;;;;;;;;5101610;28;20115;-75
2022/11/19 15:09:09;;;;;;;30.42;14.18;;;;;;;;;;5117122;28;20102;-74
2022/11/19 15:11:55;;;;;;;31.02;16.35;;;;;;;;;;5116085;28;20016;-75
2022/11/19 15:15:03;;;;;;;28.83;14.27;;;;;;;;;;5115470;28;20027;-75
2022/11/19 15:17:46;;;;;;;16.65;8.98;;;;;;;;;;5116213;28;20084;-75
2022/11/19 15:20:50;;;;;;;24.92;11.88;;;;;;;;;;5116455;28;20340;-74
2022/11/19 15:23:42;;;;;;;25.92;10.82;;;;;;;;;;5117030;28;20026;-74
2022/11/19 15:26:44;;;;;;;19.17;8.27;;;;;;;;;;5117102;28;20015;-74
2022/11/19 15:29:32;;;;;;;15.48;8.15;;;;;;;;;;5117259;27;20023;-75
2022/11/19 15:32:33;;;;;;;12.52;7.65;;;;;;;;;;5115972;28;20098;-75
2022/11/19 15:35:30;;;;;;;21.30;9.23;;;;;;;;;;5116172;28;20023;-76
2022/11/19 15:38:16;;;;;;;19.90;9.05;;;;;;;;;;5116370;28;20040;-75
2022/11/19 15:41:03;;;;;;;18.98;9.55;;;;;;;;;;5115843;28;20122;-76
2022/11/19 15:43:51;;;;;;;22.98;11.40;;;;;;;;;;5116204;28;20047;-74
2022/11/19 15:46:52;;;;;;;19.83;10.50;;;;;;;;;;5116130;28;20038;-76
2022/11/19 15:49:38;;;;;;;20.00;11.15;;;;;;;;;;5101759;28;20023;-75
2022/11/19 15:52:29;;;;;;;21.05;12.43;;;;;;;;;;5101246;28;20024;-74
2022/11/19 15:55:19;;;;;;;21.10;10.65;;;;;;;;;;5116371;28;20027;-74
2022/11/19 15:58:12;;;;;;;16.00;10.20;;;;;;;;;;5116283;28;20024;-73
2022/11/19 16:00:58;;;;;;;19.13;8.55;;;;;;;;;;5116598;28;20028;-74
2022/11/19 16:03:44;;;;;;;13.75;8.18;;;;;;;;;;5117503;27;20039;-74
2022/11/19 16:06:29;;;;;;;12.98;7.28;;;;;;;;;;5116585;28;20016;-73
2022/11/19 16:09:17;;;;;;;10.13;6.80;;;;;;;;;;5116413;28;20045;-73
2022/11/19 16:18:20;;;;;;;11.32;8.55;;;;;;;;;;5116148;28;20019;-73
2022/11/19 16:21:05;;;;;;;13.98;8.80;;;;;;;;;;5115944;28;20339;-75
2022/11/19 16:26:55;;;;;;;18.75;11.13;;;;;;;;;;5115787;28;20368;-75
2022/11/19 16:29:42;;;;;;;13.82;10.05;;;;;;;;;;5116100;28;20016;-73
2022/11/19 16:32:28;;;;;;;17.05;11.35;;;;;;;;;;5114994;28;20321;-73
2022/11/19 16:35:23;;;;;;;23.25;13.38;;;;;;;;;;5115101;28;20020;-73
2022/11/19 16:38:17;;;;;;;17.33;11.63;;;;;;;;;;5087457;28;20058;-73
2022/11/19 16:44:15;;;;;;;22.23;12.10;;;;;;;;;;5116148;28;20020;-74
2022/11/19 16:47:03;;;;;;;22.33;12.40;;;;;;;;;;5115311;28;20051;-73
2022/11/19 16:49:49;;;;;;;22.20;13.10;;;;;;;;;;5100830;28;20012;-73
2022/11/19 16:52:35;;;;;;;24.77;12.38;;;;;;;;;;5100295;28;20023;-74
2022/11/19 16:55:24;;;;;;;20.08;11.63;;;;;;;;;;5115444;28;20080;-73
2022/11/19 16:58:15;;;;;;;17.48;11.50;;;;;;;;;;5115069;28;20088;-73
2022/11/19 17:01:00;;;;;;;20.88;11.73;;;;;;;;;;5115007;28;20157;-74
2022/11/19 17:03:46;;;;;;;19.85;11.77;;;;;;;;;;5115305;28;20035;-73
2022/11/19 17:06:35;;;;;;;18.83;11.25;;;;;;;;;;5116012;28;20111;-73
2022/11/19 17:09:36;;;;;;;19.90;12.00;;;;;;;;;;5113809;28;20024;-73
2022/11/19 17:12:26;;;;;;;27.67;12.50;;;;;;;;;;5115948;28;20030;-75
2022/11/19 17:15:32;;;;;;;25.00;12.98;;;;;;;;;;5115647;28;20023;-73
2022/11/19 17:18:19;;;;;;;22.38;13.70;;;;;;;;;;5100344;28;20435;-74
2022/11/19 17:21:07;;;;;;;20.30;13.15;;;;;;;;;;5115151;28;20092;-74
2022/11/19 17:23:53;;;;;;;19.40;13.32;;;;;;;;;;5101477;28;20043;-75
2022/11/19 17:26:39;;;;;;;17.48;12.45;;;;;;;;;;5100916;28;20444;-74
2022/11/19 17:29:25;;;;;;;17.23;12.45;;;;;;;;;;5115887;28;20030;-74